sensor_id;sensor_type;location;lat;lon;timestamp;P1;durP1;ratioP1;P2;durP2;ratioP2
27199;SDS011;14714;48.106;11.546;2023-04-23T00:02:14;6.93;;;4.68;;
27199;SDS011;14714;48.106;11.546;2023-04-23T00:04:48;5.75;;;4.13;;
27199;SDS011;14714;48.106;11.546;2023-04-23T00:07:18;8.55;;;4.45;;
27199;SDS011;14714;48.106;11.546;2023-04-23T00:09:46;6.38;;;4.38;;
27199;SDS011;14714;48.106;11.546;2023-04-23T00:12:17;7.50;;;5.35;;
27199;SDS011;14714;48.106;11.546;2023-04-23T00:14:44;7.47;;;4.57;;
27199;SDS011;14714;48.106;11.546;2023-04-23T00:17:11;6.00;;;3.70;;
27199;SDS011;14714;48.106;11.546;2023-04-23T00:19:38;4.40;;;3.47;;
27199;SDS011;14714;48.106;11.546;2023-04-23T00:22:05;4.93;;;2.67;;
27199;SDS011;14714;48.106;11.546;2023-04-23T00:24:31;4.82;;;3.28;;
27199;SDS011;14714;48.106;11.546;2023-04-23T00:27:18;3.97;;;2.80;;
27199;SDS011;14714;48.106;11.546;2023-04-23T00:29:46;4.43;;;2.88;;
27199;SDS011;14714;48.106;11.546;2023-04-23T00:32:13;3.50;;;3.00;;
27199;SDS011;14714;48.106;11.546;2023-04-23T00:34:40;4.35;;;2.97;;
27199;SDS011;14714;48.106;11.546;2023-04-23T00:37:07;3.53;;;2.80;;
27199;SDS011;14714;48.106;11.546;2023-04-23T00:39:34;4.03;;;2.72;;
27199;SDS011;14714;48.106;11.546;2023-04-23T00:42:02;3.63;;;2.80;;
27199;SDS011;14714;48.106;11.546;2023-04-23T00:44:37;5.30;;;3.60;;
27199;SDS011;14714;48.106;11.546;2023-04-23T00:47:04;6.20;;;3.60;;
27199;SDS011;14714;48.106;11.546;2023-04-23T00:49:33;4.97;;;3.83;;
27199;SDS011;14714;48.106;11.546;2023-04-23T00:52:01;5.78;;;4.10;;
27199;SDS011;14714;48.106;11.546;2023-04-23T00:54:28;5.80;;;4.28;;
27199;SDS011;14714;48.106;11.546;2023-04-23T00:56:56;8.60;;;5.07;;
27199;SDS011;14714;48.106;11.546;2023-04-23T00:59:27;7.05;;;5.18;;
27199;SDS011;14714;48.106;11.546;2023-04-23T01:01:54;7.45;;;5.18;;
27199;SDS011;14714;48.106;11.546;2023-04-23T01:04:21;8.27;;;4.90;;
27199;SDS011;14714;48.106;11.546;2023-04-23T01:06:49;6.85;;;5.47;;
27199;SDS011;14714;48.106;11.546;2023-04-23T01:09:16;8.82;;;6.45;;
27199;SDS011;14714;48.106;11.546;2023-04-23T01:11:43;8.90;;;6.25;;
27199;SDS011;14714;48.106;11.546;2023-04-23T01:14:11;7.20;;;5.20;;
27199;SDS011;14714;48.106;11.546;2023-04-23T01:16:37;7.93;;;5.30;;
27199;SDS011;14714;48.106;11.546;2023-04-23T01:19:05;11.68;;;7.03;;
27199;SDS011;14714;48.106;11.546;2023-04-23T01:21:34;10.82;;;6.18;;
27199;SDS011;14714;48.106;11.546;2023-04-23T01:24:02;7.85;;;4.70;;
27199;SDS011;14714;48.106;11.546;2023-04-23T01:26:30;11.00;;;5.20;;
27199;SDS011;14714;48.106;11.546;2023-04-23T01:28:57;8.13;;;5.32;;
27199;SDS011;14714;48.106;11.546;2023-04-23T01:31:25;9.23;;;6.00;;
27199;SDS011;14714;48.106;11.546;2023-04-23T01:33:53;9.70;;;5.95;;
27199;SDS011;14714;48.106;11.546;2023-04-23T01:36:23;7.60;;;5.53;;
27199;SDS011;14714;48.106;11.546;2023-04-23T01:38:52;5.88;;;4.43;;
27199;SDS011;14714;48.106;11.546;2023-04-23T01:41:18;6.90;;;4.43;;
27199;SDS011;14714;48.106;11.546;2023-04-23T01:43:45;5.63;;;4.40;;
27199;SDS011;14714;48.106;11.546;2023-04-23T01:46:12;5.90;;;4.00;;
27199;SDS011;14714;48.106;11.546;2023-04-23T01:48:39;6.03;;;4.22;;
27199;SDS011;14714;48.106;11.546;2023-04-23T01:51:06;5.88;;;4.20;;
27199;SDS011;14714;48.106;11.546;2023-04-23T01:53:34;6.13;;;3.92;;
27199;SDS011;14714;48.106;11.546;2023-04-23T01:56:01;7.63;;;4.35;;
27199;SDS011;14714;48.106;11.546;2023-04-23T01:58:27;5.72;;;4.22;;
27199;SDS011;14714;48.106;11.546;2023-04-23T02:00:54;8.15;;;4.53;;
27199;SDS011;14714;48.106;11.546;2023-04-23T02:03:21;5.07;;;3.90;;
27199;SDS011;14714;48.106;11.546;2023-04-23T02:05:48;5.85;;;3.83;;
27199;SDS011;14714;48.106;11.546;2023-04-23T02:08:17;5.90;;;4.03;;
27199;SDS011;14714;48.106;11.546;2023-04-23T02:10:44;4.95;;;3.75;;
27199;SDS011;14714;48.106;11.546;2023-04-23T02:13:11;8.00;;;4.15;;
27199;SDS011;14714;48.106;11.546;2023-04-23T02:15:38;7.15;;;4.55;;
27199;SDS011;14714;48.106;11.546;2023-04-23T02:18:05;6.10;;;4.13;;
27199;SDS011;14714;48.106;11.546;2023-04-23T02:20:32;7.35;;;4.32;;
27199;SDS011;14714;48.106;11.546;2023-04-23T02:23:01;7.28;;;4.70;;
27199;SDS011;14714;48.106;11.546;2023-04-23T02:25:28;6.00;;;4.20;;
27199;SDS011;14714;48.106;11.546;2023-04-23T02:27:54;6.07;;;4.40;;
27199;SDS011;14714;48.106;11.546;2023-04-23T02:30:22;6.63;;;4.90;;
27199;SDS011;14714;48.106;11.546;2023-04-23T02:32:50;8.07;;;4.88;;
27199;SDS011;14714;48.106;11.546;2023-04-23T02:35:17;8.77;;;4.50;;
27199;SDS011;14714;48.106;11.546;2023-04-23T02:37:44;8.82;;;4.47;;
27199;SDS011;14714;48.106;11.546;2023-04-23T02:40:11;10.25;;;4.05;;
27199;SDS011;14714;48.106;11.546;2023-04-23T02:42:38;7.10;;;4.20;;
27199;SDS011;14714;48.106;11.546;2023-04-23T02:45:07;7.43;;;3.70;;
27199;SDS011;14714;48.106;11.546;2023-04-23T02:47:34;4.85;;;3.63;;
27199;SDS011;14714;48.106;11.546;2023-04-23T02:50:01;5.55;;;3.60;;
27199;SDS011;14714;48.106;11.546;2023-04-23T02:52:31;4.50;;;3.25;;
27199;SDS011;14714;48.106;11.546;2023-04-23T02:54:59;5.63;;;3.47;;
27199;SDS011;14714;48.106;11.546;2023-04-23T02:57:27;4.25;;;3.10;;
27199;SDS011;14714;48.106;11.546;2023-04-23T02:59:53;4.97;;;2.90;;
27199;SDS011;14714;48.106;11.546;2023-04-23T03:02:20;4.20;;;2.80;;
27199;SDS011;14714;48.106;11.546;2023-04-23T03:04:47;3.78;;;2.80;;
27199;SDS011;14714;48.106;11.546;2023-04-23T03:07:14;3.55;;;2.80;;
27199;SDS011;14714;48.106;11.546;2023-04-23T03:09:42;4.53;;;2.50;;
27199;SDS011;14714;48.106;11.546;2023-04-23T03:12:09;4.00;;;2.78;;
27199;SDS011;14714;48.106;11.546;2023-04-23T03:14:36;3.17;;;2.50;;
27199;SDS011;14714;48.106;11.546;2023-04-23T03:17:03;3.08;;;2.22;;
27199;SDS011;14714;48.106;11.546;2023-04-23T03:19:29;4.25;;;2.63;;
27199;SDS011;14714;48.106;11.546;2023-04-23T03:21:56;3.30;;;2.60;;
27199;SDS011;14714;48.106;11.546;2023-04-23T03:24:23;2.80;;;2.55;;
27199;SDS011;14714;48.106;11.546;2023-04-23T03:26:51;4.95;;;2.80;;
27199;SDS011;14714;48.106;11.546;2023-04-23T03:29:17;3.33;;;2.80;;
27199;SDS011;14714;48.106;11.546;2023-04-23T03:31:44;4.80;;;2.95;;
27199;SDS011;14714;48.106;11.546;2023-04-23T03:34:11;5.00;;;3.13;;
27199;SDS011;14714;48.106;11.546;2023-04-23T03:36:38;3.72;;;3.10;;
27199;SDS011;14714;48.106;11.546;2023-04-23T03:39:04;4.78;;;3.10;;
27199;SDS011;14714;48.106;11.546;2023-04-23T03:41:32;3.47;;;2.88;;
27199;SDS011;14714;48.106;11.546;2023-04-23T03:43:59;2.78;;;2.50;;
27199;SDS011;14714;48.106;11.546;2023-04-23T03:46:25;3.70;;;2.80;;
27199;SDS011;14714;48.106;11.546;2023-04-23T03:48:52;4.18;;;2.88;;
27199;SDS011;14714;48.106;11.546;2023-04-23T03:51:19;4.53;;;2.85;;
27199;SDS011;14714;48.106;11.546;2023-04-23T03:53:46;3.67;;;3.10;;
27199;SDS011;14714;48.106;11.546;2023-04-23T03:56:14;6.32;;;3.13;;
27199;SDS011;14714;48.106;11.546;2023-04-23T03:58:41;3.97;;;3.38;;
27199;SDS011;14714;48.106;11.546;2023-04-23T04:01:08;6.20;;;3.47;;
27199;SDS011;14714;48.106;11.546;2023-04-23T04:03:34;5.82;;;2.97;;
27199;SDS011;14714;48.106;11.546;2023-04-23T04:06:02;4.90;;;3.38;;
27199;SDS011;14714;48.106;11.546;2023-04-23T04:08:29;4.80;;;3.10;;
27199;SDS011;14714;48.106;11.546;2023-04-23T04:10:56;5.20;;;3.28;;
27199;SDS011;14714;48.106;11.546;2023-04-23T04:13:23;3.20;;;2.70;;
27199;SDS011;14714;48.106;11.546;2023-04-23T04:15:50;3.70;;;3.03;;
27199;SDS011;14714;48.106;11.546;2023-04-23T04:18:17;3.47;;;2.80;;
27199;SDS011;14714;48.106;11.546;2023-04-23T04:20:44;3.33;;;2.60;;
27199;SDS011;14714;48.106;11.546;2023-04-23T04:23:10;5.93;;;3.00;;
27199;SDS011;14714;48.106;11.546;2023-04-23T04:25:37;4.80;;;3.22;;
27199;SDS011;14714;48.106;11.546;2023-04-23T04:28:06;4.93;;;2.90;;
27199;SDS011;14714;48.106;11.546;2023-04-23T04:30:37;4.95;;;2.80;;
27199;SDS011;14714;48.106;11.546;2023-04-23T04:33:04;6.20;;;3.15;;
27199;SDS011;14714;48.106;11.546;2023-04-23T04:35:31;4.93;;;3.40;;
27199;SDS011;14714;48.106;11.546;2023-04-23T04:37:58;6.35;;;2.92;;
27199;SDS011;14714;48.106;11.546;2023-04-23T04:40:25;5.65;;;3.35;;
27199;SDS011;14714;48.106;11.546;2023-04-23T04:42:53;4.28;;;3.38;;
27199;SDS011;14714;48.106;11.546;2023-04-23T04:45:20;4.63;;;3.60;;
27199;SDS011;14714;48.106;11.546;2023-04-23T04:47:47;5.43;;;3.60;;
27199;SDS011;14714;48.106;11.546;2023-04-23T04:50:14;5.93;;;3.50;;
27199;SDS011;14714;48.106;11.546;2023-04-23T04:52:41;4.63;;;3.30;;
27199;SDS011;14714;48.106;11.546;2023-04-23T04:55:08;5.28;;;3.80;;
27199;SDS011;14714;48.106;11.546;2023-04-23T04:57:34;5.13;;;3.67;;
27199;SDS011;14714;48.106;11.546;2023-04-23T05:00:07;5.15;;;3.72;;
27199;SDS011;14714;48.106;11.546;2023-04-23T05:02:51;5.07;;;3.50;;
27199;SDS011;14714;48.106;11.546;2023-04-23T05:05:19;5.28;;;3.70;;
27199;SDS011;14714;48.106;11.546;2023-04-23T05:07:47;4.35;;;3.53;;
27199;SDS011;14714;48.106;11.546;2023-04-23T05:10:14;5.20;;;3.53;;
27199;SDS011;14714;48.106;11.546;2023-04-23T05:12:41;6.30;;;3.83;;
27199;SDS011;14714;48.106;11.546;2023-04-23T05:15:09;4.82;;;3.40;;
27199;SDS011;14714;48.106;11.546;2023-04-23T05:17:40;5.35;;;4.25;;
27199;SDS011;14714;48.106;11.546;2023-04-23T05:20:08;5.50;;;3.90;;
27199;SDS011;14714;48.106;11.546;2023-04-23T05:22:39;5.88;;;4.15;;
27199;SDS011;14714;48.106;11.546;2023-04-23T05:25:07;6.68;;;4.45;;
27199;SDS011;14714;48.106;11.546;2023-04-23T05:27:36;5.57;;;4.07;;
27199;SDS011;14714;48.106;11.546;2023-04-23T05:30:04;5.97;;;4.30;;
27199;SDS011;14714;48.106;11.546;2023-04-23T05:32:33;4.60;;;4.00;;
27199;SDS011;14714;48.106;11.546;2023-04-23T05:35:01;6.63;;;4.13;;
27199;SDS011;14714;48.106;11.546;2023-04-23T05:37:29;5.47;;;4.13;;
27199;SDS011;14714;48.106;11.546;2023-04-23T05:39:56;5.00;;;4.10;;
27199;SDS011;14714;48.106;11.546;2023-04-23T05:42:27;6.70;;;4.50;;
27199;SDS011;14714;48.106;11.546;2023-04-23T05:44:54;5.82;;;3.97;;
27199;SDS011;14714;48.106;11.546;2023-04-23T05:47:21;5.22;;;4.22;;
27199;SDS011;14714;48.106;11.546;2023-04-23T05:49:48;5.00;;;4.07;;
27199;SDS011;14714;48.106;11.546;2023-04-23T05:52:14;8.70;;;4.20;;
27199;SDS011;14714;48.106;11.546;2023-04-23T05:54:41;5.47;;;4.30;;
27199;SDS011;14714;48.106;11.546;2023-04-23T05:57:09;6.75;;;4.40;;
27199;SDS011;14714;48.106;11.546;2023-04-23T05:59:37;7.15;;;4.60;;
27199;SDS011;14714;48.106;11.546;2023-04-23T06:02:03;7.15;;;4.18;;
27199;SDS011;14714;48.106;11.546;2023-04-23T06:04:31;6.10;;;4.38;;
27199;SDS011;14714;48.106;11.546;2023-04-23T06:06:58;7.03;;;4.45;;
27199;SDS011;14714;48.106;11.546;2023-04-23T06:09:24;5.82;;;4.50;;
27199;SDS011;14714;48.106;11.546;2023-04-23T06:11:51;7.95;;;4.65;;
27199;SDS011;14714;48.106;11.546;2023-04-23T06:14:19;5.78;;;4.70;;
27199;SDS011;14714;48.106;11.546;2023-04-23T06:16:46;6.60;;;4.90;;
27199;SDS011;14714;48.106;11.546;2023-04-23T06:19:12;8.35;;;4.63;;
27199;SDS011;14714;48.106;11.546;2023-04-23T06:21:39;6.22;;;4.55;;
27199;SDS011;14714;48.106;11.546;2023-04-23T06:24:06;5.72;;;4.50;;
27199;SDS011;14714;48.106;11.546;2023-04-23T06:26:33;7.88;;;4.88;;
27199;SDS011;14714;48.106;11.546;2023-04-23T06:29:00;6.95;;;5.03;;
27199;SDS011;14714;48.106;11.546;2023-04-23T06:31:27;6.82;;;4.70;;
27199;SDS011;14714;48.106;11.546;2023-04-23T06:33:53;7.50;;;4.78;;
27199;SDS011;14714;48.106;11.546;2023-04-23T06:36:20;7.15;;;3.97;;
27199;SDS011;14714;48.106;11.546;2023-04-23T06:38:47;7.57;;;4.57;;
27199;SDS011;14714;48.106;11.546;2023-04-23T06:41:14;5.93;;;4.43;;
27199;SDS011;14714;48.106;11.546;2023-04-23T06:43:41;7.32;;;4.72;;
27199;SDS011;14714;48.106;11.546;2023-04-23T06:46:07;7.68;;;4.95;;
27199;SDS011;14714;48.106;11.546;2023-04-23T06:48:34;7.40;;;4.80;;
27199;SDS011;14714;48.106;11.546;2023-04-23T06:51:02;6.88;;;4.60;;
27199;SDS011;14714;48.106;11.546;2023-04-23T06:53:31;8.25;;;5.00;;
27199;SDS011;14714;48.106;11.546;2023-04-23T06:55:58;7.20;;;4.60;;
27199;SDS011;14714;48.106;11.546;2023-04-23T06:58:25;9.45;;;4.97;;
27199;SDS011;14714;48.106;11.546;2023-04-23T07:00:57;7.25;;;4.95;;
27199;SDS011;14714;48.106;11.546;2023-04-23T07:03:29;5.38;;;4.45;;
27199;SDS011;14714;48.106;11.546;2023-04-23T07:05:57;8.45;;;4.55;;
27199;SDS011;14714;48.106;11.546;2023-04-23T07:08:23;5.97;;;4.60;;
27199;SDS011;14714;48.106;11.546;2023-04-23T07:10:50;5.70;;;4.50;;
27199;SDS011;14714;48.106;11.546;2023-04-23T07:13:18;7.03;;;4.72;;
27199;SDS011;14714;48.106;11.546;2023-04-23T07:15:45;5.68;;;4.30;;
27199;SDS011;14714;48.106;11.546;2023-04-23T07:18:12;6.22;;;4.70;;
27199;SDS011;14714;48.106;11.546;2023-04-23T07:20:39;8.48;;;4.35;;
27199;SDS011;14714;48.106;11.546;2023-04-23T07:23:06;4.95;;;3.95;;
27199;SDS011;14714;48.106;11.546;2023-04-23T07:25:33;5.43;;;4.28;;
27199;SDS011;14714;48.106;11.546;2023-04-23T07:27:59;5.30;;;4.28;;
27199;SDS011;14714;48.106;11.546;2023-04-23T07:30:26;5.78;;;4.25;;
27199;SDS011;14714;48.106;11.546;2023-04-23T07:32:53;5.82;;;3.63;;
27199;SDS011;14714;48.106;11.546;2023-04-23T07:35:20;5.10;;;4.25;;
27199;SDS011;14714;48.106;11.546;2023-04-23T07:37:47;4.60;;;3.63;;
27199;SDS011;14714;48.106;11.546;2023-04-23T07:40:22;4.88;;;3.92;;
27199;SDS011;14714;48.106;11.546;2023-04-23T07:42:49;4.18;;;3.78;;
27199;SDS011;14714;48.106;11.546;2023-04-23T07:45:17;4.45;;;3.70;;
27199;SDS011;14714;48.106;11.546;2023-04-23T07:47:44;5.35;;;3.80;;
27199;SDS011;14714;48.106;11.546;2023-04-23T07:50:14;4.68;;;3.75;;
27199;SDS011;14714;48.106;11.546;2023-04-23T07:52:41;5.30;;;3.83;;
27199;SDS011;14714;48.106;11.546;2023-04-23T07:55:08;4.57;;;3.60;;
27199;SDS011;14714;48.106;11.546;2023-04-23T07:57:35;4.82;;;3.85;;
27199;SDS011;14714;48.106;11.546;2023-04-23T08:00:02;5.55;;;3.40;;
27199;SDS011;14714;48.106;11.546;2023-04-23T08:02:30;3.85;;;3.38;;
27199;SDS011;14714;48.106;11.546;2023-04-23T08:04:57;6.35;;;4.20;;
27199;SDS011;14714;48.106;11.546;2023-04-23T08:07:24;5.30;;;3.72;;
27199;SDS011;14714;48.106;11.546;2023-04-23T08:09:51;5.63;;;4.00;;
27199;SDS011;14714;48.106;11.546;2023-04-23T08:12:18;6.18;;;3.47;;
27199;SDS011;14714;48.106;11.546;2023-04-23T08:14:45;4.60;;;3.50;;
27199;SDS011;14714;48.106;11.546;2023-04-23T08:17:12;4.30;;;3.85;;
27199;SDS011;14714;48.106;11.546;2023-04-23T08:19:39;4.45;;;3.40;;
27199;SDS011;14714;48.106;11.546;2023-04-23T08:22:06;5.30;;;3.83;;
27199;SDS011;14714;48.106;11.546;2023-04-23T08:24:33;5.00;;;3.88;;
27199;SDS011;14714;48.106;11.546;2023-04-23T08:27:00;6.47;;;3.92;;
27199;SDS011;14714;48.106;11.546;2023-04-23T08:29:26;4.88;;;3.70;;
27199;SDS011;14714;48.106;11.546;2023-04-23T08:31:53;5.55;;;4.05;;
27199;SDS011;14714;48.106;11.546;2023-04-23T08:34:20;4.72;;;3.80;;
27199;SDS011;14714;48.106;11.546;2023-04-23T08:36:47;4.05;;;3.30;;
27199;SDS011;14714;48.106;11.546;2023-04-23T08:39:14;3.78;;;3.13;;
27199;SDS011;14714;48.106;11.546;2023-04-23T08:41:41;4.38;;;3.50;;
27199;SDS011;14714;48.106;11.546;2023-04-23T08:44:23;4.05;;;3.20;;
27199;SDS011;14714;48.106;11.546;2023-04-23T08:46:51;3.38;;;2.88;;
27199;SDS011;14714;48.106;11.546;2023-04-23T08:49:19;4.70;;;3.35;;
27199;SDS011;14714;48.106;11.546;2023-04-23T08:51:52;3.63;;;2.90;;
27199;SDS011;14714;48.106;11.546;2023-04-23T08:54:26;4.55;;;3.30;;
27199;SDS011;14714;48.106;11.546;2023-04-23T08:56:57;3.47;;;2.80;;
27199;SDS011;14714;48.106;11.546;2023-04-23T09:01:52;2.95;;;2.60;;
27199;SDS011;14714;48.106;11.546;2023-04-23T09:04:19;3.45;;;2.80;;
27199;SDS011;14714;48.106;11.546;2023-04-23T09:06:46;2.92;;;2.47;;
27199;SDS011;14714;48.106;11.546;2023-04-23T09:09:14;3.28;;;2.40;;
27199;SDS011;14714;48.106;11.546;2023-04-23T09:11:43;6.82;;;2.85;;
27199;SDS011;14714;48.106;11.546;2023-04-23T09:14:10;2.30;;;2.10;;
27199;SDS011;14714;48.106;11.546;2023-04-23T09:16:38;3.58;;;2.40;;
27199;SDS011;14714;48.106;11.546;2023-04-23T09:19:09;2.90;;;2.45;;
27199;SDS011;14714;48.106;11.546;2023-04-23T09:21:37;3.15;;;2.45;;
27199;SDS011;14714;48.106;11.546;2023-04-23T09:24:08;3.13;;;2.50;;
27199;SDS011;14714;48.106;11.546;2023-04-23T09:26:43;3.15;;;2.45;;
27199;SDS011;14714;48.106;11.546;2023-04-23T09:29:12;3.33;;;2.30;;
27199;SDS011;14714;48.106;11.546;2023-04-23T09:31:43;3.20;;;2.35;;
27199;SDS011;14714;48.106;11.546;2023-04-23T09:34:11;3.95;;;2.53;;
27199;SDS011;14714;48.106;11.546;2023-04-23T09:36:39;3.05;;;2.60;;
27199;SDS011;14714;48.106;11.546;2023-04-23T09:39:11;3.92;;;2.50;;
27199;SDS011;14714;48.106;11.546;2023-04-23T09:41:38;4.38;;;2.42;;
27199;SDS011;14714;48.106;11.546;2023-04-23T09:44:06;4.60;;;2.38;;
27199;SDS011;14714;48.106;11.546;2023-04-23T09:46:41;5.70;;;3.60;;
27199;SDS011;14714;48.106;11.546;2023-04-23T09:49:09;4.45;;;3.15;;
27199;SDS011;14714;48.106;11.546;2023-04-23T09:51:37;2.88;;;2.22;;
27199;SDS011;14714;48.106;11.546;2023-04-23T09:54:12;4.15;;;2.67;;
27199;SDS011;14714;48.106;11.546;2023-04-23T09:56:41;3.83;;;2.78;;
27199;SDS011;14714;48.106;11.546;2023-04-23T09:59:21;3.70;;;2.17;;
27199;SDS011;14714;48.106;11.546;2023-04-23T10:02:09;5.00;;;2.40;;
27199;SDS011;14714;48.106;11.546;2023-04-23T10:04:37;3.22;;;2.40;;
27199;SDS011;14714;48.106;11.546;2023-04-23T10:07:05;4.72;;;2.38;;
27199;SDS011;14714;48.106;11.546;2023-04-23T10:09:45;2.60;;;2.40;;
27199;SDS011;14714;48.106;11.546;2023-04-23T10:12:13;4.25;;;1.92;;
27199;SDS011;14714;48.106;11.546;2023-04-23T10:17:11;3.83;;;2.63;;
27199;SDS011;14714;48.106;11.546;2023-04-23T10:19:38;3.22;;;2.33;;
27199;SDS011;14714;48.106;11.546;2023-04-23T10:22:09;6.10;;;2.60;;
27199;SDS011;14714;48.106;11.546;2023-04-23T10:24:45;3.95;;;2.70;;
27199;SDS011;14714;48.106;11.546;2023-04-23T10:27:17;3.33;;;2.55;;
27199;SDS011;14714;48.106;11.546;2023-04-23T10:29:48;3.42;;;2.60;;
27199;SDS011;14714;48.106;11.546;2023-04-23T10:32:16;4.00;;;2.42;;
27199;SDS011;14714;48.106;11.546;2023-04-23T10:34:43;4.07;;;2.20;;
27199;SDS011;14714;48.106;11.546;2023-04-23T10:37:10;3.00;;;2.10;;
27199;SDS011;14714;48.106;11.546;2023-04-23T10:39:41;2.53;;;2.30;;
27199;SDS011;14714;48.106;11.546;2023-04-23T10:42:09;3.20;;;2.23;;
27199;SDS011;14714;48.106;11.546;2023-04-23T10:44:41;3.88;;;2.20;;
27199;SDS011;14714;48.106;11.546;2023-04-23T10:47:12;4.07;;;2.38;;
27199;SDS011;14714;48.106;11.546;2023-04-23T10:49:41;2.65;;;2.20;;
27199;SDS011;14714;48.106;11.546;2023-04-23T10:52:11;2.30;;;2.10;;
27199;SDS011;14714;48.106;11.546;2023-04-23T10:54:48;5.50;;;2.33;;
27199;SDS011;14714;48.106;11.546;2023-04-23T10:57:21;3.38;;;2.17;;
27199;SDS011;14714;48.106;11.546;2023-04-23T10:59:52;3.97;;;2.55;;
27199;SDS011;14714;48.106;11.546;2023-04-23T11:02:23;4.10;;;2.70;;
27199;SDS011;14714;48.106;11.546;2023-04-23T11:04:55;2.97;;;2.42;;
27199;SDS011;14714;48.106;11.546;2023-04-23T11:07:25;5.00;;;2.30;;
27199;SDS011;14714;48.106;11.546;2023-04-23T11:09:59;4.05;;;2.00;;
27199;SDS011;14714;48.106;11.546;2023-04-23T11:12:39;4.82;;;2.10;;
27199;SDS011;14714;48.106;11.546;2023-04-23T11:15:13;2.75;;;2.47;;
27199;SDS011;14714;48.106;11.546;2023-04-23T11:20:19;3.00;;;2.50;;
27199;SDS011;14714;48.106;11.546;2023-04-23T11:22:48;3.03;;;2.28;;
27199;SDS011;14714;48.106;11.546;2023-04-23T11:25:19;2.70;;;2.30;;
27199;SDS011;14714;48.106;11.546;2023-04-23T11:27:52;3.45;;;2.85;;
27199;SDS011;14714;48.106;11.546;2023-04-23T11:30:21;4.10;;;2.47;;
27199;SDS011;14714;48.106;11.546;2023-04-23T11:32:50;2.50;;;2.23;;
27199;SDS011;14714;48.106;11.546;2023-04-23T11:35:20;2.70;;;2.28;;
27199;SDS011;14714;48.106;11.546;2023-04-23T11:37:58;4.65;;;2.20;;
27199;SDS011;14714;48.106;11.546;2023-04-23T11:40:25;4.10;;;2.20;;
27199;SDS011;14714;48.106;11.546;2023-04-23T11:42:56;6.32;;;2.30;;
27199;SDS011;14714;48.106;11.546;2023-04-23T11:45:27;4.07;;;3.45;;
27199;SDS011;14714;48.106;11.546;2023-04-23T11:47:55;2.67;;;2.38;;
27199;SDS011;14714;48.106;11.546;2023-04-23T11:50:28;3.00;;;2.70;;
27199;SDS011;14714;48.106;11.546;2023-04-23T11:53:04;4.93;;;3.30;;
27199;SDS011;14714;48.106;11.546;2023-04-23T11:55:35;3.28;;;2.70;;
27199;SDS011;14714;48.106;11.546;2023-04-23T11:58:03;3.65;;;2.20;;
27199;SDS011;14714;48.106;11.546;2023-04-23T12:00:30;2.55;;;2.30;;
27199;SDS011;14714;48.106;11.546;2023-04-23T12:02:57;2.70;;;2.17;;
27199;SDS011;14714;48.106;11.546;2023-04-23T12:05:29;2.90;;;2.20;;
27199;SDS011;14714;48.106;11.546;2023-04-23T12:08:07;3.80;;;2.20;;
27199;SDS011;14714;48.106;11.546;2023-04-23T12:10:45;2.10;;;1.90;;
27199;SDS011;14714;48.106;11.546;2023-04-23T12:13:21;3.38;;;2.50;;
27199;SDS011;14714;48.106;11.546;2023-04-23T12:16:02;2.95;;;2.35;;
27199;SDS011;14714;48.106;11.546;2023-04-23T12:18:30;3.80;;;2.67;;
27199;SDS011;14714;48.106;11.546;2023-04-23T12:21:06;3.58;;;2.50;;
27199;SDS011;14714;48.106;11.546;2023-04-23T12:23:35;3.15;;;2.35;;
27199;SDS011;14714;48.106;11.546;2023-04-23T12:26:03;4.10;;;2.30;;
27199;SDS011;14714;48.106;11.546;2023-04-23T12:28:44;2.97;;;2.40;;
27199;SDS011;14714;48.106;11.546;2023-04-23T12:31:22;3.55;;;2.65;;
27199;SDS011;14714;48.106;11.546;2023-04-23T12:34:07;6.80;;;2.65;;
27199;SDS011;14714;48.106;11.546;2023-04-23T12:36:35;2.90;;;2.60;;
27199;SDS011;14714;48.106;11.546;2023-04-23T12:41:53;3.55;;;2.40;;
27199;SDS011;14714;48.106;11.546;2023-04-23T12:44:30;3.42;;;3.05;;
27199;SDS011;14714;48.106;11.546;2023-04-23T12:47:03;4.07;;;3.58;;
27199;SDS011;14714;48.106;11.546;2023-04-23T12:49:33;4.55;;;2.42;;
27199;SDS011;14714;48.106;11.546;2023-04-23T12:52:01;3.05;;;2.17;;
27199;SDS011;14714;48.106;11.546;2023-04-23T12:54:30;6.75;;;4.50;;
27199;SDS011;14714;48.106;11.546;2023-04-23T12:57:03;4.53;;;2.85;;
27199;SDS011;14714;48.106;11.546;2023-04-23T12:59:35;3.88;;;2.33;;
27199;SDS011;14714;48.106;11.546;2023-04-23T13:02:02;3.17;;;2.40;;
27199;SDS011;14714;48.106;11.546;2023-04-23T13:04:30;3.70;;;3.30;;
27199;SDS011;14714;48.106;11.546;2023-04-23T13:06:59;4.55;;;3.70;;
27199;SDS011;14714;48.106;11.546;2023-04-23T13:09:29;4.35;;;3.80;;
27199;SDS011;14714;48.106;11.546;2023-04-23T13:11:56;5.13;;;3.40;;
27199;SDS011;14714;48.106;11.546;2023-04-23T13:14:25;4.57;;;3.97;;
27199;SDS011;14714;48.106;11.546;2023-04-23T13:16:53;5.60;;;2.97;;
27199;SDS011;14714;48.106;11.546;2023-04-23T13:19:19;5.72;;;2.80;;
27199;SDS011;14714;48.106;11.546;2023-04-23T13:21:46;4.88;;;2.67;;
27199;SDS011;14714;48.106;11.546;2023-04-23T13:24:13;3.28;;;2.45;;
27199;SDS011;14714;48.106;11.546;2023-04-23T13:26:40;6.13;;;3.33;;
27199;SDS011;14714;48.106;11.546;2023-04-23T13:29:06;5.20;;;2.70;;
27199;SDS011;14714;48.106;11.546;2023-04-23T13:31:33;4.45;;;2.80;;
27199;SDS011;14714;48.106;11.546;2023-04-23T13:34:00;4.70;;;3.08;;
27199;SDS011;14714;48.106;11.546;2023-04-23T13:36:28;5.25;;;3.03;;
27199;SDS011;14714;48.106;11.546;2023-04-23T13:38:55;5.18;;;3.00;;
27199;SDS011;14714;48.106;11.546;2023-04-23T13:41:22;2.97;;;2.67;;
27199;SDS011;14714;48.106;11.546;2023-04-23T13:43:49;5.57;;;4.00;;
27199;SDS011;14714;48.106;11.546;2023-04-23T13:46:15;3.80;;;2.75;;
27199;SDS011;14714;48.106;11.546;2023-04-23T13:48:42;3.13;;;2.80;;
27199;SDS011;14714;48.106;11.546;2023-04-23T13:51:09;3.88;;;2.55;;
27199;SDS011;14714;48.106;11.546;2023-04-23T13:53:56;4.88;;;3.55;;
27199;SDS011;14714;48.106;11.546;2023-04-23T13:56:25;3.40;;;2.53;;
27199;SDS011;14714;48.106;11.546;2023-04-23T13:58:52;3.72;;;2.63;;
27199;SDS011;14714;48.106;11.546;2023-04-23T14:01:33;3.53;;;2.67;;
27199;SDS011;14714;48.106;11.546;2023-04-23T14:04:00;5.30;;;3.28;;
27199;SDS011;14714;48.106;11.546;2023-04-23T14:06:29;7.05;;;3.10;;
27199;SDS011;14714;48.106;11.546;2023-04-23T14:08:56;3.65;;;2.40;;
27199;SDS011;14714;48.106;11.546;2023-04-23T14:11:23;4.95;;;2.70;;
27199;SDS011;14714;48.106;11.546;2023-04-23T14:13:50;4.13;;;2.80;;
27199;SDS011;14714;48.106;11.546;2023-04-23T14:16:16;5.00;;;3.25;;
27199;SDS011;14714;48.106;11.546;2023-04-23T14:18:43;4.90;;;3.28;;
27199;SDS011;14714;48.106;11.546;2023-04-23T14:21:10;4.30;;;2.92;;
27199;SDS011;14714;48.106;11.546;2023-04-23T14:26:21;3.88;;;3.00;;
27199;SDS011;14714;48.106;11.546;2023-04-23T14:28:50;4.20;;;3.15;;
27199;SDS011;14714;48.106;11.546;2023-04-23T14:31:18;3.92;;;2.90;;
27199;SDS011;14714;48.106;11.546;2023-04-23T14:33:45;3.58;;;3.22;;
27199;SDS011;14714;48.106;11.546;2023-04-23T14:36:11;6.63;;;3.30;;
27199;SDS011;14714;48.106;11.546;2023-04-23T14:38:38;3.60;;;3.25;;
27199;SDS011;14714;48.106;11.546;2023-04-23T14:41:05;5.95;;;3.08;;
27199;SDS011;14714;48.106;11.546;2023-04-23T14:43:32;4.22;;;3.15;;
27199;SDS011;14714;48.106;11.546;2023-04-23T14:45:59;6.60;;;3.42;;
27199;SDS011;14714;48.106;11.546;2023-04-23T14:48:26;3.83;;;3.20;;
27199;SDS011;14714;48.106;11.546;2023-04-23T14:50:54;4.63;;;3.40;;
27199;SDS011;14714;48.106;11.546;2023-04-23T14:53:21;3.83;;;3.30;;
27199;SDS011;14714;48.106;11.546;2023-04-23T14:55:47;4.90;;;3.10;;